Time;durP1;ratioP1;P1;durP2;ratioP2;P2;SDS_P1;SDS_P2;PMS_P1;PMS_P2;Temp;Humidity;BMP_temperature;BMP_pressure;BME280_temperature;BME280_humidity;BME280_pressure;Samples;Min_cycle;Max_cycle;Signal;HPM_P1;HPM_P2
2023/05/05 00:01:20;;;;;;;10.17;3.57;;;9.70;99.90;;;;;;5051655;28;21175;-51
2023/05/05 00:03:47;;;;;;;5.00;3.00;;;9.80;99.90;;;;;;5055183;28;20473;-51
2023/05/05 00:06:14;;;;;;;3.93;2.50;;;9.80;99.90;;;;;;5054124;28;20562;-51
2023/05/05 00:08:41;;;;;;;4.87;3.07;;;9.80;99.90;;;;;;5054322;28;20472;-51
2023/05/05 00:11:08;;;;;;;5.90;3.00;;;9.80;99.90;;;;;;5054843;28;20513;-51
2023/05/05 00:13:34;;;;;;;5.87;3.27;;;9.70;99.90;;;;;;5055132;28;20504;-51
2023/05/05 00:16:02;;;;;;;8.73;3.40;;;9.70;99.90;;;;;;5055494;28;20479;-51
2023/05/05 00:18:29;;;;;;;6.03;2.63;;;9.70;99.90;;;;;;5055572;28;21077;-51
2023/05/05 00:20:56;;;;;;;16.63;3.67;;;9.70;99.90;;;;;;5054387;28;20525;-51
2023/05/05 00:23:22;;;;;;;6.40;2.87;;;9.70;99.90;;;;;;5053762;28;21016;-51
2023/05/05 00:25:49;;;;;;;11.30;4.10;;;9.60;99.90;;;;;;5054376;28;20493;-52
2023/05/05 00:28:15;;;;;;;4.93;2.63;;;9.70;99.90;;;;;;5054822;28;20500;-51
2023/05/05 00:30:42;;;;;;;5.27;2.77;;;9.70;99.90;;;;;;5055535;28;20481;-51
2023/05/05 00:33:10;;;;;;;7.00;3.10;;;9.70;99.90;;;;;;5052627;28;20512;-50
2023/05/05 00:35:36;;;;;;;12.20;4.53;;;9.60;99.90;;;;;;5051985;28;20886;-51
2023/05/05 00:38:03;;;;;;;6.80;2.93;;;9.60;99.90;;;;;;5052067;28;20523;-53
2023/05/05 00:40:30;;;;;;;9.00;3.23;;;9.60;99.90;;;;;;5051964;28;20490;-51
2023/05/05 00:42:58;;;;;;;7.23;3.40;;;9.60;99.90;;;;;;5048877;28;20985;-51
2023/05/05 00:45:25;;;;;;;5.13;3.20;;;9.60;99.90;;;;;;5047088;28;20471;-51
2023/05/05 00:47:55;;;;;;;7.27;3.37;;;9.60;99.90;;;;;;5054715;28;21028;-50
2023/05/05 00:50:25;;;;;;;7.63;2.83;;;9.60;99.90;;;;;;5054760;28;20446;-50
2023/05/05 00:52:54;;;;;;;8.60;3.73;;;9.60;99.90;;;;;;5055214;28;20541;-52
2023/05/05 00:55:21;;;;;;;6.67;3.47;;;9.60;99.90;;;;;;5052808;28;20516;-52
2023/05/05 00:57:48;;;;;;;7.50;2.57;;;9.50;99.90;;;;;;5053600;28;20939;-51
2023/05/05 01:00:16;;;;;;;8.00;3.60;;;9.50;99.90;;;;;;5053659;28;20827;-51
2023/05/05 01:02:44;;;;;;;5.17;3.10;;;9.50;99.90;;;;;;5054246;28;20815;-51
2023/05/05 01:05:13;;;;;;;9.43;3.27;;;9.50;99.90;;;;;;5054308;28;20471;-51
2023/05/05 01:07:48;;;;;;;3.70;2.73;;;9.50;99.90;;;;;;5049710;28;20476;-51
2023/05/05 01:10:21;;;;;;;7.23;3.50;;;9.40;99.90;;;;;;5063070;28;20438;-51
2023/05/05 01:12:57;;;;;;;5.87;3.40;;;9.40;99.90;;;;;;5045959;28;21404;-52
2023/05/05 01:15:31;;;;;;;9.40;3.50;;;9.40;99.90;;;;;;5044317;28;20469;-51
2023/05/05 01:18:03;;;;;;;5.13;3.37;;;9.40;99.90;;;;;;5054343;28;20512;-50
2023/05/05 01:20:37;;;;;;;6.57;2.90;;;9.40;99.90;;;;;;5054292;28;20452;-51
2023/05/05 01:23:08;;;;;;;8.13;3.10;;;9.40;99.90;;;;;;5054564;28;20972;-51
2023/05/05 01:26:13;;;;;;;8.83;3.37;;;9.40;99.90;;;;;;5053900;28;20855;-50
2023/05/05 01:29:00;;;;;;;7.07;3.13;;;9.40;99.90;;;;;;5048687;28;20496;-50
2023/05/05 01:31:50;;;;;;;3.07;2.80;;;9.30;99.90;;;;;;5049649;28;20976;-52
2023/05/05 01:34:20;;;;;;;6.10;3.03;;;9.30;99.90;;;;;;5047259;28;20459;-51
2023/05/05 01:36:52;;;;;;;7.43;2.90;;;9.30;99.90;;;;;;5042159;28;20455;-52
2023/05/05 01:39:21;;;;;;;11.03;3.47;;;9.20;99.90;;;;;;5051724;28;20556;-52
2023/05/05 01:41:50;;;;;;;7.87;3.40;;;9.30;99.90;;;;;;5045324;28;20562;-52
2023/05/05 01:44:19;;;;;;;5.23;3.53;;;9.20;99.90;;;;;;5048549;28;20572;-52
2023/05/05 01:46:48;;;;;;;5.70;3.00;;;9.20;99.90;;;;;;5049468;28;21019;-52
2023/05/05 01:49:15;;;;;;;14.00;4.07;;;9.20;99.90;;;;;;5050378;28;20495;-51
2023/05/05 01:51:42;;;;;;;11.73;3.43;;;9.20;99.90;;;;;;5046048;28;20538;-51
2023/05/05 01:54:10;;;;;;;6.10;3.10;;;9.20;99.90;;;;;;5050308;28;21061;-52
2023/05/05 01:56:40;;;;;;;8.80;3.57;;;9.10;99.90;;;;;;5050524;28;20540;-52
2023/05/05 01:59:07;;;;;;;6.20;3.13;;;9.10;99.90;;;;;;5053313;28;20843;-50
2023/05/05 02:01:36;;;;;;;9.43;3.90;;;9.10;99.90;;;;;;5045590;28;20907;-50
2023/05/05 02:04:08;;;;;;;6.33;3.80;;;9.00;99.90;;;;;;5052019;28;20491;-51
2023/05/05 02:06:36;;;;;;;12.03;3.33;;;9.00;99.90;;;;;;5050249;28;20461;-51
2023/05/05 02:09:03;;;;;;;7.70;3.10;;;8.90;99.90;;;;;;5043658;28;20497;-51
2023/05/05 02:11:30;;;;;;;9.30;3.40;;;8.90;99.90;;;;;;5053940;28;20551;-51
2023/05/05 02:13:58;;;;;;;6.77;3.10;;;8.80;99.90;;;;;;5048736;28;21208;-52
2023/05/05 02:16:25;;;;;;;9.90;3.60;;;8.80;99.90;;;;;;5050532;28;20907;-51
2023/05/05 02:18:53;;;;;;;6.73;3.27;;;8.80;99.90;;;;;;5053888;28;20920;-51
2023/05/05 02:21:21;;;;;;;6.37;2.90;;;8.80;99.90;;;;;;5052488;28;20496;-51
2023/05/05 02:23:50;;;;;;;5.03;3.47;;;8.80;99.90;;;;;;5052578;28;20588;-51
2023/05/05 02:26:20;;;;;;;7.57;2.97;;;8.70;99.60;;;;;;5054082;28;20449;-51
2023/05/05 02:28:51;;;;;;;24.23;3.57;;;8.60;95.90;;;;;;5053965;28;20489;-51
2023/05/05 02:31:20;;;;;;;7.43;2.83;;;8.60;92.80;;;;;;5051503;28;20492;-51
2023/05/05 02:33:49;;;;;;;5.30;3.17;;;8.50;89.50;;;;;;5051353;28;20484;-55
2023/05/05 02:36:20;;;;;;;5.23;3.40;;;8.60;90.70;;;;;;5060368;28;20463;-57
2023/05/05 02:38:52;;;;;;;5.20;3.20;;;8.60;87.50;;;;;;5065513;28;20552;-51
2023/05/05 02:41:21;;;;;;;8.10;3.40;;;8.50;87.10;;;;;;5063141;28;20500;-51
2023/05/05 02:43:49;;;;;;;7.50;3.67;;;8.50;87.80;;;;;;5068579;28;20487;-51
2023/05/05 02:46:16;;;;;;;8.20;3.10;;;8.50;84.60;;;;;;5068504;28;20838;-53
2023/05/05 02:48:42;;;;;;;6.20;2.93;;;8.40;82.30;;;;;;5068404;28;20483;-52
2023/05/05 02:51:09;;;;;;;5.60;3.03;;;8.40;81.90;;;;;;5063857;28;20453;-51
2023/05/05 02:53:36;;;;;;;6.10;2.77;;;8.40;79.70;;;;;;5048605;28;20993;-51
2023/05/05 02:56:14;;;;;;;6.73;3.20;;;8.30;77.90;;;;;;5051687;28;21036;-51
2023/05/05 02:58:47;;;;;;;3.17;2.30;;;8.30;73.00;;;;;;5047047;28;20544;-51
2023/05/05 03:01:26;;;;;;;5.50;2.63;;;8.30;70.80;;;;;;5046017;28;20914;-51
2023/05/05 03:04:02;;;;;;;4.90;2.87;;;8.30;71.50;;;;;;5044826;28;20487;-51
2023/05/05 03:06:30;;;;;;;5.60;3.43;;;8.30;70.40;;;;;;5048978;28;20949;-51
2023/05/05 03:09:05;;;;;;;4.17;3.00;;;8.20;65.50;;;;;;5044499;28;20570;-50
2023/05/05 03:11:38;;;;;;;7.63;3.53;;;8.20;65.10;;;;;;5051732;28;20461;-51
2023/05/05 03:14:08;;;;;;;13.43;3.60;;;8.10;63.10;;;;;;5036723;28;20500;-51
2023/05/05 03:16:36;;;;;;;3.13;2.30;;;8.20;61.20;;;;;;5080780;22;20463;-54
2023/05/05 03:19:03;;;;;;;8.20;2.90;;;8.20;62.80;;;;;;5068408;28;20878;-54
2023/05/05 03:21:32;;;;;;;7.73;2.60;;;8.10;59.80;;;;;;5064816;28;20487;-55
2023/05/05 03:23:58;;;;;;;4.80;2.87;;;8.00;57.50;;;;;;5068973;28;20492;-53
2023/05/05 03:26:25;;;;;;;5.40;3.03;;;8.00;53.90;;;;;;5065243;28;20523;-55
2023/05/05 03:28:53;;;;;;;4.67;3.00;;;8.00;47.90;;;;;;5045417;28;20487;-56
2023/05/05 03:31:20;;;;;;;6.70;3.40;;;7.90;45.60;;;;;;5046640;28;20457;-54
2023/05/05 03:33:46;;;;;;;5.10;2.90;;;8.00;46.20;;;;;;5050475;28;20902;-53
2023/05/05 03:36:13;;;;;;;8.47;2.70;;;7.90;47.70;;;;;;5048909;28;20545;-53
2023/05/05 03:38:39;;;;;;;5.27;2.73;;;7.90;44.70;;;;;;5048301;28;20563;-54
2023/05/05 03:41:06;;;;;;;5.50;3.57;;;7.90;37.50;;;;;;5049829;28;20484;-53
2023/05/05 03:43:32;;;;;;;7.80;3.27;;;7.80;39.40;;;;;;5049786;28;20989;-55
2023/05/05 03:46:00;;;;;;;10.93;3.50;;;7.80;37.00;;;;;;5050409;28;20523;-54
2023/05/05 03:48:27;;;;;;;7.40;3.47;;;7.80;36.10;;;;;;5041840;28;20982;-55
2023/05/05 03:50:54;;;;;;;7.83;3.03;;;7.70;33.40;;;;;;5044241;28;20561;-54
2023/05/05 03:53:20;;;;;;;5.03;2.93;;;7.70;31.60;;;;;;5045654;28;20528;-54
2023/05/05 03:55:47;;;;;;;6.83;3.07;;;7.70;29.60;;;;;;5049692;28;20468;-55
2023/05/05 03:58:14;;;;;;;25.20;3.40;;;7.70;29.10;;;;;;5045601;28;20841;-55
2023/05/05 04:00:40;;;;;;;10.40;2.50;;;7.80;31.20;;;;;;5047132;28;20462;-54
2023/05/05 04:03:08;;;;;;;3.50;2.40;;;7.80;32.40;;;;;;5049271;28;20464;-53
2023/05/05 04:05:35;;;;;;;5.53;3.40;;;7.80;35.40;;;;;;5047311;28;20482;-53
2023/05/05 04:08:02;;;;;;;9.30;3.60;;;7.80;36.10;;;;;;5044515;28;20585;-55
2023/05/05 04:10:28;;;;;;;3.93;2.63;;;7.80;38.70;;;;;;5047796;28;20559;-54
2023/05/05 04:12:55;;;;;;;5.63;3.17;;;7.90;40.20;;;;;;5043148;28;20489;-55
2023/05/05 04:15:22;;;;;;;7.50;2.73;;;7.90;42.80;;;;;;5049874;28;20990;-54
2023/05/05 04:17:48;;;;;;;4.50;3.00;;;8.00;45.50;;;;;;5049655;28;20525;-56
2023/05/05 04:20:16;;;;;;;10.83;3.90;;;8.10;50.90;;;;;;5044312;28;20493;-55
2023/05/05 04:22:43;;;;;;;4.70;3.17;;;8.10;48.70;;;;;;5046946;28;20548;-56
2023/05/05 04:25:09;;;;;;;4.77;2.70;;;8.20;51.40;;;;;;5039965;28;20534;-55
2023/05/05 04:27:36;;;;;;;10.17;3.03;;;8.30;61.40;;;;;;5047785;28;20574;-54
2023/05/05 04:30:03;;;;;;;7.93;3.50;;;8.30;60.80;;;;;;5049014;28;20488;-54
2023/05/05 04:32:30;;;;;;;6.83;3.77;;;8.40;63.90;;;;;;5051147;28;20473;-55
2023/05/05 04:34:56;;;;;;;4.57;3.37;;;8.40;68.50;;;;;;5049243;28;20475;-54
2023/05/05 04:37:25;;;;;;;8.53;3.50;;;8.40;71.00;;;;;;5045219;28;20616;-52
2023/05/05 04:39:51;;;;;;;7.03;2.60;;;8.50;71.10;;;;;;5051632;28;20471;-53
2023/05/05 04:42:19;;;;;;;9.60;3.73;;;8.50;76.50;;;;;;5048098;28;20874;-52
2023/05/05 04:44:46;;;;;;;5.43;3.20;;;8.60;79.00;;;;;;5049280;28;20629;-50
2023/05/05 04:47:16;;;;;;;6.87;3.40;;;8.70;84.80;;;;;;5051418;28;20517;-52
2023/05/05 04:49:43;;;;;;;4.57;3.20;;;8.80;96.50;;;;;;5038902;28;20456;-52
2023/05/05 04:52:12;;;;;;;10.73;3.60;;;8.90;98.40;;;;;;5057909;28;20809;-51
2023/05/05 04:54:40;;;;;;;11.80;3.57;;;9.00;99.90;;;;;;5044393;28;20458;-50
2023/05/05 04:57:07;;;;;;;6.67;3.40;;;9.10;99.90;;;;;;5042937;28;20951;-52
2023/05/05 04:59:35;;;;;;;11.03;5.10;;;9.20;99.90;;;;;;5050641;28;21001;-51
2023/05/05 05:02:01;;;;;;;6.83;3.10;;;9.30;99.90;;;;;;5040768;28;21018;-51
2023/05/05 05:04:28;;;;;;;6.47;3.13;;;9.40;99.90;;;;;;5054616;28;20461;-51
2023/05/05 05:06:54;;;;;;;7.43;3.50;;;9.40;99.90;;;;;;5050358;28;20485;-53
2023/05/05 05:09:21;;;;;;;5.37;3.27;;;9.50;99.90;;;;;;5053604;28;20588;-53
2023/05/05 05:11:49;;;;;;;7.17;3.77;;;9.60;99.90;;;;;;5047765;28;20502;-51
2023/05/05 05:14:16;;;;;;;8.57;3.70;;;9.60;99.90;;;;;;5050917;28;20838;-54
2023/05/05 05:16:44;;;;;;;5.73;3.53;;;9.80;99.90;;;;;;5049581;28;20523;-54
2023/05/05 05:19:11;;;;;;;9.63;3.57;;;9.80;99.90;;;;;;5047625;28;20469;-55
2023/05/05 05:21:37;;;;;;;21.27;4.33;;;10.00;99.90;;;;;;5051662;28;20543;-55
2023/05/05 05:24:04;;;;;;;8.30;3.80;;;10.00;99.90;;;;;;5049689;28;21761;-54
2023/05/05 05:26:31;;;;;;;9.70;3.30;;;10.10;99.90;;;;;;5052484;28;20477;-54
2023/05/05 05:28:59;;;;;;;6.07;4.00;;;10.20;99.90;;;;;;5052650;28;20513;-56
2023/05/05 05:31:25;;;;;;;6.53;4.57;;;10.30;99.90;;;;;;5053263;28;20911;-54
2023/05/05 05:33:52;;;;;;;3.83;3.53;;;10.40;99.90;;;;;;5046120;28;20548;-53
2023/05/05 05:36:18;;;;;;;6.90;3.23;;;10.40;99.90;;;;;;5040244;28;20540;-54
2023/05/05 05:38:45;;;;;;;6.87;3.67;;;10.40;99.90;;;;;;5049806;28;20559;-54
2023/05/05 05:41:11;;;;;;;7.97;3.40;;;10.50;99.90;;;;;;5051476;28;20476;-54
2023/05/05 05:43:38;;;;;;;5.70;3.77;;;10.50;99.90;;;;;;5051527;28;20498;-53
2023/05/05 05:46:05;;;;;;;6.97;4.13;;;10.60;84.40;;;;;;5043840;28;21025;-55
2023/05/05 05:48:32;;;;;;;10.17;4.10;;;10.60;27.70;;;;;;5050099;28;20582;-53
2023/05/05 05:50:59;;;;;;;8.03;4.40;;;10.70;81.60;;;;;;5047334;28;20514;-54
2023/05/05 05:53:25;;;;;;;6.77;4.13;;;10.80;20.80;;;;;;5044879;28;20463;-54
2023/05/05 05:55:52;;;;;;;6.93;3.80;;;10.80;31.00;;;;;;5047728;28;20504;-56
2023/05/05 05:58:18;;;;;;;6.90;3.77;;;10.80;21.60;;;;;;5050075;28;20542;-55
2023/05/05 06:00:45;;;;;;;6.07;3.83;;;10.70;40.90;;;;;;5048032;28;20544;-54
2023/05/05 06:03:13;;;;;;;11.50;3.97;;;10.80;30.10;;;;;;5048071;28;20469;-55
2023/05/05 06:05:40;;;;;;;5.67;4.03;;;10.90;31.80;;;;;;5049326;28;20464;-55
2023/05/05 06:08:07;;;;;;;8.30;3.57;;;11.00;46.70;;;;;;5051177;28;20522;-55
2023/05/05 06:10:33;;;;;;;25.80;4.17;;;11.10;54.60;;;;;;5054083;28;20515;-55
2023/05/05 06:13:00;;;;;;;10.07;3.90;;;11.30;64.30;;;;;;5046176;28;20499;-54
2023/05/05 06:15:27;;;;;;;9.00;4.43;;;11.50;56.70;;;;;;5047951;28;20972;-54
2023/05/05 06:17:54;;;;;;;11.33;3.67;;;11.60;65.10;;;;;;5048522;28;20493;-55
2023/05/05 06:20:21;;;;;;;4.83;3.40;;;11.70;84.60;;;;;;5047439;28;20947;-54
2023/05/05 06:22:48;;;;;;;8.77;4.10;;;11.80;99.90;;;;;;5051742;28;21107;-53
2023/05/05 06:25:15;;;;;;;7.37;4.07;;;11.90;93.60;;;;;;5040365;28;20472;-50
2023/05/05 06:27:42;;;;;;;9.67;3.40;;;12.00;99.90;;;;;;5044737;28;20492;-50
2023/05/05 06:30:10;;;;;;;5.80;4.10;;;12.00;99.90;;;;;;5045040;28;20985;-51
2023/05/05 06:32:37;;;;;;;6.10;3.90;;;11.80;99.90;;;;;;5039725;28;20474;-51
2023/05/05 06:35:04;;;;;;;5.80;3.97;;;11.90;99.90;;;;;;5045325;28;20461;-50
2023/05/05 06:37:32;;;;;;;11.50;4.20;;;12.00;99.90;;;;;;5045744;28;20508;-50
2023/05/05 06:39:59;;;;;;;11.37;4.70;;;12.30;99.90;;;;;;5043860;28;21005;-50
2023/05/05 06:42:25;;;;;;;19.50;4.53;;;12.40;99.90;;;;;;5042901;28;20496;-50
2023/05/05 06:44:52;;;;;;;8.57;3.77;;;12.60;99.90;;;;;;5048721;28;20497;-50
2023/05/05 06:47:19;;;;;;;6.80;3.17;;;12.50;99.90;;;;;;5050611;28;20472;-51
2023/05/05 06:49:45;;;;;;;6.63;3.70;;;12.70;99.90;;;;;;5041465;28;21002;-50
2023/05/05 06:52:12;;;;;;;10.40;4.17;;;12.80;99.90;;;;;;5047294;28;20494;-50
2023/05/05 06:54:40;;;;;;;9.77;3.70;;;13.30;99.90;;;;;;5044988;28;20492;-58
2023/05/05 06:57:06;;;;;;;12.73;4.83;;;13.50;99.90;;;;;;5049497;28;20494;-49
2023/05/05 06:59:33;;;;;;;6.73;3.57;;;13.60;99.90;;;;;;5047248;28;20441;-49
2023/05/05 07:01:59;;;;;;;4.70;3.57;;;13.80;99.90;;;;;;5044434;28;20545;-50
2023/05/05 07:04:26;;;;;;;7.20;3.50;;;13.70;99.90;;;;;;5047086;28;20479;-51
2023/05/05 07:06:54;;;;;;;6.27;3.87;;;13.70;99.90;;;;;;5046930;28;20497;-50
2023/05/05 07:09:20;;;;;;;11.63;3.50;;;13.70;99.90;;;;;;5046233;28;20562;-50
2023/05/05 07:11:48;;;;;;;6.63;4.13;;;14.20;99.90;;;;;;5042334;28;20592;-50
2023/05/05 07:14:15;;;;;;;7.23;3.23;;;14.60;99.90;;;;;;5047053;28;20466;-49
2023/05/05 07:16:41;;;;;;;6.50;3.90;;;15.10;99.90;;;;;;5042417;28;20573;-49
2023/05/05 07:19:08;;;;;;;7.10;3.90;;;14.80;99.90;;;;;;5049309;28;20493;-50
2023/05/05 07:21:35;;;;;;;15.03;4.00;;;14.80;99.90;;;;;;5049774;28;20543;-49
2023/05/05 07:24:02;;;;;;;6.47;3.80;;;14.70;99.90;;;;;;5044486;28;20591;-50
2023/05/05 07:26:29;;;;;;;7.73;4.20;;;14.50;99.90;;;;;;5046827;28;20998;-49
2023/05/05 07:28:57;;;;;;;10.13;3.63;;;14.40;99.90;;;;;;5047865;28;20905;-50
2023/05/05 07:31:25;;;;;;;8.40;4.73;;;14.50;99.90;;;;;;5046896;28;20547;-49
2023/05/05 07:33:51;;;;;;;6.83;3.80;;;13.80;99.90;;;;;;5047941;28;20467;-50
2023/05/05 07:36:18;;;;;;;8.43;3.70;;;14.00;99.90;;;;;;5049960;28;20500;-50
2023/05/05 07:38:44;;;;;;;8.43;3.50;;;14.30;99.90;;;;;;5047211;28;20492;-49
2023/05/05 07:41:11;;;;;;;5.47;4.40;;;14.40;99.90;;;;;;5049491;28;20459;-50
2023/05/05 07:43:39;;;;;;;8.90;4.77;;;14.70;99.90;;;;;;5046673;28;20457;-49
2023/05/05 07:46:08;;;;;;;9.10;4.57;;;14.80;99.90;;;;;;5045978;28;20497;-50
2023/05/05 07:48:34;;;;;;;6.97;4.27;;;14.70;99.90;;;;;;5050133;28;20488;-50
2023/05/05 07:51:01;;;;;;;6.20;4.10;;;14.70;99.90;;;;;;5046491;28;20621;-49
2023/05/05 07:53:28;;;;;;;8.80;4.30;;;14.70;99.90;;;;;;5041830;28;20468;-49
2023/05/05 07:55:55;;;;;;;8.50;3.90;;;14.70;99.90;;;;;;5048860;28;20481;-49
2023/05/05 07:58:21;;;;;;;5.23;3.90;;;15.00;99.90;;;;;;5048167;28;20518;-51
2023/05/05 08:00:49;;;;;;;9.60;4.07;;;15.00;99.90;;;;;;5043265;28;20559;-50
2023/05/05 08:03:18;;;;;;;11.43;4.40;;;15.20;99.90;;;;;;5044644;28;20457;-50
2023/05/05 08:05:45;;;;;;;18.03;4.07;;;15.20;99.90;;;;;;5042338;28;21147;-50
2023/05/05 08:08:12;;;;;;;5.43;3.90;;;15.40;99.90;;;;;;5047087;28;20581;-50
2023/05/05 08:10:39;;;;;;;11.97;4.87;;;15.70;99.90;;;;;;5039211;28;20483;-50
2023/05/05 08:13:05;;;;;;;10.23;4.83;;;15.80;99.90;;;;;;5040446;28;20541;-50
2023/05/05 08:15:32;;;;;;;11.20;4.47;;;16.30;99.90;;;;;;5045166;28;20464;-50
2023/05/05 08:17:58;;;;;;;9.90;4.47;;;16.20;99.90;;;;;;5041920;28;20573;-50
2023/05/05 08:20:28;;;;;;;7.70;4.80;;;16.40;99.90;;;;;;5048111;28;20549;-50
2023/05/05 08:22:55;;;;;;;9.53;4.97;;;16.80;99.90;;;;;;5041625;28;21240;-50
2023/05/05 08:25:22;;;;;;;14.40;4.93;;;17.00;99.90;;;;;;5045774;28;20464;-50
2023/05/05 08:27:48;;;;;;;9.23;3.90;;;16.50;99.90;;;;;;5048387;28;20488;-50
2023/05/05 08:30:19;;;;;;;10.40;5.57;;;17.00;99.90;;;;;;5048740;28;20676;-50
2023/05/05 08:32:46;;;;;;;8.03;4.50;;;16.80;99.90;;;;;;5049927;28;20458;-50
2023/05/05 08:35:12;;;;;;;10.63;4.20;;;17.00;99.90;;;;;;5052107;28;20552;-50
2023/05/05 08:37:41;;;;;;;7.13;4.17;;;17.30;99.90;;;;;;5036254;28;20478;-50
2023/05/05 08:40:12;;;;;;;15.40;4.77;;;17.70;99.90;;;;;;5046646;28;20548;-51
2023/05/05 08:42:39;;;;;;;10.27;5.00;;;17.80;99.90;;;;;;5043168;28;20453;-50
2023/05/05 08:45:07;;;;;;;9.27;4.37;;;17.80;99.90;;;;;;5051731;28;20523;-50
2023/05/05 08:47:35;;;;;;;9.20;4.37;;;18.30;99.90;;;;;;5041752;28;20585;-50
2023/05/05 08:50:04;;;;;;;7.60;4.93;;;18.80;99.90;;;;;;5047050;28;20485;-50
2023/05/05 08:52:38;;;;;;;12.67;5.03;;;19.40;99.90;;;;;;5043547;28;20461;-50
2023/05/05 08:55:14;;;;;;;10.00;4.37;;;18.60;99.90;;;;;;5044505;28;20895;-50
2023/05/05 08:57:48;;;;;;;9.10;4.60;;;18.30;99.90;;;;;;5047158;28;20481;-50
2023/05/05 09:00:18;;;;;;;12.63;5.03;;;18.80;99.90;;;;;;5042714;28;20493;-50
2023/05/05 09:02:46;;;;;;;10.00;5.50;;;18.70;99.90;;;;;;5041000;28;20544;-50
2023/05/05 09:05:13;;;;;;;17.07;5.07;;;18.80;99.90;;;;;;5042338;28;20548;-50
2023/05/05 09:07:40;;;;;;;5.97;5.17;;;19.20;99.90;;;;;;5048621;28;20485;-51
2023/05/05 09:10:09;;;;;;;12.43;4.83;;;19.80;99.90;;;;;;5048717;28;20488;-51
2023/05/05 09:12:39;;;;;;;5.83;4.53;;;20.30;99.90;;;;;;5046269;28;20461;-50
2023/05/05 09:15:06;;;;;;;4.60;4.20;;;18.70;99.90;;;;;;5037232;28;20521;-50
2023/05/05 09:17:33;;;;;;;14.53;4.43;;;20.00;99.90;;;;;;5057934;22;20578;-49
2023/05/05 09:20:04;;;;;;;6.50;4.93;;;20.50;99.90;;;;;;5067977;28;20481;-51
2023/05/05 09:22:33;;;;;;;17.20;5.03;;;20.20;99.90;;;;;;5069039;28;20457;-52
2023/05/05 09:24:59;;;;;;;10.67;5.17;;;20.50;99.90;;;;;;5061247;28;20564;-52
2023/05/05 09:27:27;;;;;;;6.80;5.50;;;20.60;99.90;;;;;;5063096;28;20489;-52
2023/05/05 09:29:55;;;;;;;8.77;5.30;;;21.30;99.90;;;;;;5046632;28;20477;-52
2023/05/05 09:32:22;;;;;;;7.03;4.77;;;20.10;99.90;;;;;;5046248;28;20469;-53
2023/05/05 09:34:57;;;;;;;7.73;4.80;;;19.90;99.90;;;;;;5046900;28;20553;-52
2023/05/05 09:37:27;;;;;;;6.57;4.13;;;19.40;99.90;;;;;;5046861;28;20857;-53
2023/05/05 09:39:55;;;;;;;9.20;4.40;;;19.60;99.90;;;;;;5047065;28;20462;-53
2023/05/05 09:42:21;;;;;;;6.63;4.83;;;21.20;99.90;;;;;;5048921;28;20470;-52
2023/05/05 09:44:50;;;;;;;8.33;4.97;;;20.40;99.90;;;;;;5044765;28;20547;-52
2023/05/05 09:47:17;;;;;;;11.77;5.10;;;20.40;99.90;;;;;;5049551;28;20560;-52
2023/05/05 09:49:43;;;;;;;7.03;5.20;;;20.80;99.90;;;;;;5049232;28;20556;-53
2023/05/05 09:52:14;;;;;;;5.23;4.57;;;20.40;99.90;;;;;;5049861;28;20545;-53
2023/05/05 09:54:41;;;;;;;6.63;4.83;;;20.70;99.90;;;;;;5047118;28;20487;-52
2023/05/05 09:57:08;;;;;;;7.03;4.53;;;21.10;99.90;;;;;;5051632;28;20491;-52
2023/05/05 09:59:35;;;;;;;12.00;4.63;;;21.40;99.90;;;;;;5046201;28;20559;-53
2023/05/05 10:02:13;;;;;;;8.13;4.23;;;21.70;99.90;;;;;;5039177;28;21046;-52
2023/05/05 10:04:40;;;;;;;13.67;4.20;;;22.40;99.90;;;;;;5041547;28;20465;-53
2023/05/05 10:07:06;;;;;;;11.73;4.80;;;22.00;99.90;;;;;;5048266;28;20486;-53
2023/05/05 10:09:33;;;;;;;6.90;4.20;;;20.70;99.90;;;;;;5047603;28;20528;-51
2023/05/05 10:12:00;;;;;;;4.33;3.27;;;20.40;99.90;;;;;;5046568;28;20544;-53
2023/05/05 10:14:30;;;;;;;5.13;4.37;;;19.90;99.90;;;;;;5044110;28;20462;-52
2023/05/05 10:17:00;;;;;;;7.83;3.80;;;19.40;99.90;;;;;;5047061;28;20525;-52
2023/05/05 10:19:32;;;;;;;12.43;3.87;;;19.30;99.90;;;;;;5047085;28;20450;-52
2023/05/05 10:22:03;;;;;;;6.43;4.13;;;19.60;99.90;;;;;;5046423;28;20899;-53
2023/05/05 10:24:37;;;;;;;12.50;4.33;;;19.30;99.90;;;;;;5045924;28;20558;-53
2023/05/05 10:27:11;;;;;;;6.37;4.00;;;20.90;99.90;;;;;;5045059;28;20531;-52
2023/05/05 10:29:45;;;;;;;5.90;4.10;;;21.30;99.90;;;;;;5043706;28;20530;-52
2023/05/05 10:32:21;;;;;;;4.70;3.63;;;21.50;99.90;;;;;;5048818;28;20446;-50
2023/05/05 10:34:56;;;;;;;9.00;3.40;;;20.70;99.90;;;;;;5042610;28;20542;-49
2023/05/05 10:37:23;;;;;;;7.70;3.40;;;20.80;99.90;;;;;;5038586;28;20568;-49
2023/05/05 10:39:51;;;;;;;8.03;4.00;;;20.50;99.90;;;;;;5039484;28;20548;-52
2023/05/05 10:42:19;;;;;;;10.43;3.20;;;21.00;99.90;;;;;;5046080;28;20487;-53
2023/05/05 10:44:47;;;;;;;7.00;3.57;;;21.40;99.90;;;;;;5047134;28;20540;-53
2023/05/05 10:47:14;;;;;;;9.50;4.57;;;22.10;99.90;;;;;;5045348;28;20492;-52
2023/05/05 10:49:47;;;;;;;5.30;3.57;;;21.40;99.90;;;;;;5044121;28;20577;-52
2023/05/05 10:52:23;;;;;;;3.80;3.27;;;21.20;99.90;;;;;;5047195;28;20545;-52
2023/05/05 10:54:55;;;;;;;5.97;4.20;;;21.20;99.90;;;;;;5044884;28;20561;-53
2023/05/05 10:57:25;;;;;;;11.20;3.50;;;21.50;99.90;;;;;;5047904;28;20573;-52
2023/05/05 10:59:52;;;;;;;10.90;3.80;;;21.40;99.90;;;;;;5045568;28;20557;-52
2023/05/05 11:02:23;;;;;;;7.63;3.40;;;20.70;99.90;;;;;;5047812;28;20561;-52
2023/05/05 11:05:07;;;;;;;8.60;3.70;;;21.10;99.90;;;;;;5049698;28;20462;-53
2023/05/05 11:07:35;;;;;;;10.27;3.40;;;21.40;99.90;;;;;;5042573;28;20573;-52
2023/05/05 11:10:02;;;;;;;10.13;4.23;;;22.00;99.90;;;;;;5045009;28;20585;-52
2023/05/05 11:12:30;;;;;;;10.50;3.60;;;21.40;99.90;;;;;;5041598;28;20552;-53
2023/05/05 11:15:36;;;;;;;8.57;3.33;;;20.70;99.90;;;;;;5045708;28;20494;-52
2023/05/05 11:18:04;;;;;;;8.00;3.23;;;21.30;99.90;;;;;;5043323;28;20489;-52
2023/05/05 11:21:02;;;;;;;5.90;3.27;;;22.20;99.90;;;;;;5048428;28;20525;-53
2023/05/05 11:23:30;;;;;;;4.37;3.60;;;22.00;99.90;;;;;;5038110;28;20545;-52
2023/05/05 11:25:57;;;;;;;7.23;3.90;;;21.80;99.90;;;;;;5039890;28;20468;-52
2023/05/05 11:28:29;;;;;;;12.50;3.50;;;22.50;97.60;;;;;;5048911;28;21052;-52
2023/05/05 11:31:16;;;;;;;5.67;3.30;;;22.70;99.90;;;;;;5043374;28;20481;-53
2023/05/05 11:33:42;;;;;;;8.60;3.40;;;22.50;94.20;;;;;;5050866;28;20488;-53
2023/05/05 11:36:10;;;;;;;7.73;3.33;;;21.40;99.90;;;;;;5042636;28;20494;-52
2023/05/05 11:38:57;;;;;;;3.70;3.40;;;21.20;99.90;;;;;;5051288;28;20484;-52
2023/05/05 11:41:56;;;;;;;6.90;2.67;;;21.00;99.90;;;;;;5047642;28;20553;-53
2023/05/05 11:44:30;;;;;;;8.20;3.60;;;21.00;99.90;;;;;;5025891;28;20520;-54
2023/05/05 11:47:25;;;;;;;3.43;2.80;;;21.40;99.90;;;;;;5047472;28;20559;-53
2023/05/05 11:49:51;;;;;;;10.60;3.40;;;21.80;99.90;;;;;;5044624;28;20478;-52
2023/05/05 11:52:18;;;;;;;5.93;2.80;;;22.40;97.00;;;;;;5047545;28;20945;-52
2023/05/05 11:54:47;;;;;;;3.77;2.50;;;22.00;99.90;;;;;;5047760;28;20546;-52
2023/05/05 11:57:16;;;;;;;3.90;2.87;;;22.60;99.90;;;;;;5047234;28;20481;-52
2023/05/05 11:59:51;;;;;;;25.30;2.87;;;22.60;99.90;;;;;;5045716;28;20471;-52
2023/05/05 12:02:18;;;;;;;16.10;2.87;;;23.30;99.90;;;;;;5050518;28;20461;-52
2023/05/05 12:04:45;;;;;;;12.77;2.83;;;22.20;99.90;;;;;;5048961;28;20528;-52
2023/05/05 12:07:15;;;;;;;6.13;3.00;;;22.80;99.90;;;;;;5049614;28;20501;-52
2023/05/05 12:09:43;;;;;;;8.60;3.20;;;22.80;99.90;;;;;;5049126;28;20462;-52
2023/05/05 12:12:11;;;;;;;10.80;2.80;;;23.40;91.00;;;;;;5049866;28;20462;-53
2023/05/05 12:14:45;;;;;;;5.43;2.90;;;23.00;94.40;;;;;;5052856;28;20474;-53
2023/05/05 12:17:12;;;;;;;7.37;3.40;;;21.00;99.90;;;;;;5043955;28;20489;-52
2023/05/05 12:19:45;;;;;;;2.90;2.60;;;21.50;99.90;;;;;;5049108;28;20955;-53
2023/05/05 12:22:19;;;;;;;5.23;2.90;;;20.30;99.90;;;;;;5052463;28;20553;-52
2023/05/05 12:24:51;;;;;;;11.27;2.90;;;21.20;99.90;;;;;;5045658;28;20462;-53
2023/05/05 12:27:19;;;;;;;4.33;3.00;;;21.10;99.90;;;;;;5050901;28;20624;-53
2023/05/05 12:29:46;;;;;;;3.53;2.67;;;21.30;99.90;;;;;;5051145;28;20465;-53
2023/05/05 12:32:19;;;;;;;5.90;2.90;;;22.30;99.90;;;;;;5047632;28;20461;-53
2023/05/05 12:34:46;;;;;;;12.07;3.27;;;22.10;94.00;;;;;;5043827;28;20469;-53
2023/05/05 12:37:14;;;;;;;5.53;2.90;;;22.80;99.90;;;;;;5049781;28;20544;-53
2023/05/05 12:39:41;;;;;;;6.90;2.40;;;21.20;99.90;;;;;;5046893;28;20528;-52
2023/05/05 12:42:07;;;;;;;5.27;3.00;;;22.70;99.90;;;;;;5047919;28;20500;-53
2023/05/05 12:44:36;;;;;;;4.93;2.60;;;22.40;99.20;;;;;;5048903;28;20504;-53
2023/05/05 12:47:03;;;;;;;3.97;2.63;;;23.20;99.90;;;;;;5048657;28;20494;-53
2023/05/05 12:49:32;;;;;;;10.73;3.90;;;22.80;91.20;;;;;;5051025;28;20458;-53
2023/05/05 12:52:00;;;;;;;4.90;2.90;;;22.60;86.40;;;;;;5049351;28;20484;-53
2023/05/05 12:54:28;;;;;;;6.80;3.50;;;22.20;88.60;;;;;;5049481;28;20959;-53
2023/05/05 12:56:57;;;;;;;9.13;3.40;;;22.70;83.30;;;;;;5043614;28;20548;-52